createdAt,value
2023-03-07T00:00:50.720Z,46.27
2023-03-07T00:03:39.667Z,46.27
2023-03-07T00:06:28.728Z,46.21
2023-03-07T00:09:18.754Z,46.13
2023-03-07T00:12:08.306Z,46.02
2023-03-07T00:14:58.168Z,46.43
2023-03-07T00:17:46.844Z,46.38
2023-03-07T00:20:35.862Z,46.24
2023-03-07T00:23:24.467Z,46.44
2023-03-07T00:26:16.376Z,46.48
2023-03-07T00:29:09.478Z,46.33
2023-03-07T00:31:58.077Z,46.45
2023-03-07T00:34:50.343Z,46.45
2023-03-07T00:37:39.020Z,46.23
2023-03-07T00:40:27.937Z,46.02
2023-03-07T00:43:18.297Z,46.09
2023-03-07T00:46:07.697Z,46.27
2023-03-07T00:48:56.764Z,46.09
2023-03-07T00:51:45.426Z,46.30
2023-03-07T00:54:34.103Z,46.36
2023-03-07T00:57:23.252Z,46.57
2023-03-07T01:00:15.126Z,46.38
2023-03-07T01:03:04.211Z,46.50
2023-03-07T01:05:53.629Z,46.17
2023-03-07T01:08:42.656Z,46.24
2023-03-07T01:11:31.971Z,46.52
2023-03-07T01:14:20.613Z,46.08
2023-03-07T01:17:11.527Z,46.15
2023-03-07T01:20:00.182Z,46.30
2023-03-07T01:22:49.204Z,46.34
2023-03-07T01:25:41.675Z,46.54
2023-03-07T01:28:30.241Z,46.63
2023-03-07T01:31:18.932Z,46.74
2023-03-07T01:34:09.073Z,46.55
2023-03-07T01:36:57.734Z,46.92
2023-03-07T01:39:46.927Z,46.66
2023-03-07T01:42:35.611Z,46.63
2023-03-07T01:46:01.669Z,46.54
2023-03-07T01:48:53.493Z,46.59
2023-03-07T01:51:46.882Z,46.62
2023-03-07T01:54:38.375Z,46.79
2023-03-07T01:57:29.941Z,46.47
2023-03-07T02:00:26.325Z,46.36
2023-03-07T02:03:21.355Z,46.76
2023-03-07T02:06:12.202Z,46.89
2023-03-07T02:09:03.185Z,46.60
2023-03-07T02:11:52.004Z,46.57
2023-03-07T02:14:40.748Z,46.44
2023-03-07T02:17:30.031Z,46.50
2023-03-07T02:20:28.179Z,46.43
2023-03-07T02:23:24.061Z,46.54
2023-03-07T02:26:19.095Z,46.60
2023-03-07T02:29:09.215Z,46.50
2023-03-07T02:31:58.698Z,46.95
2023-03-07T02:34:47.342Z,46.93
2023-03-07T02:37:38.912Z,46.75
2023-03-07T02:40:29.077Z,46.82
2023-03-07T02:43:17.932Z,46.68
2023-03-07T02:46:08.263Z,46.55
2023-03-07T02:48:56.999Z,46.50
2023-03-07T02:51:45.577Z,46.56
2023-03-07T02:54:34.180Z,46.73
2023-03-07T02:57:22.847Z,46.65
2023-03-07T03:00:13.266Z,46.73
2023-03-07T03:03:03.488Z,46.50
2023-03-07T03:05:52.153Z,46.53
2023-03-07T03:08:40.846Z,46.64
2023-03-07T03:11:31.390Z,46.48
2023-03-07T03:14:20.370Z,46.34
2023-03-07T03:17:08.974Z,46.52
2023-03-07T03:19:59.886Z,46.20
2023-03-07T03:22:48.446Z,46.28
2023-03-07T03:25:38.678Z,46.55
2023-03-07T03:28:29.095Z,46.73
2023-03-07T03:31:18.045Z,46.43
2023-03-07T03:34:06.649Z,46.61
2023-03-07T03:36:56.698Z,47.03
2023-03-07T03:39:45.335Z,46.45
2023-03-07T03:42:33.952Z,46.47
2023-03-07T03:45:22.670Z,46.94
2023-03-07T03:48:11.469Z,46.74
2023-03-07T03:51:04.927Z,46.49
2023-03-07T03:53:55.298Z,46.62
2023-03-07T03:56:43.846Z,46.64
2023-03-07T03:59:32.810Z,46.86
2023-03-07T04:02:22.291Z,46.74
2023-03-07T04:05:11.292Z,46.66
2023-03-07T04:08:00.164Z,46.68
2023-03-07T04:10:50.153Z,46.56
2023-03-07T04:13:38.814Z,46.69
2023-03-07T04:16:27.438Z,46.79
2023-03-07T04:19:16.068Z,46.54
2023-03-07T04:22:05.583Z,46.61
2023-03-07T04:24:54.151Z,46.84
2023-03-07T04:27:44.214Z,46.65
2023-03-07T04:30:33.028Z,46.90
2023-03-07T04:33:22.239Z,46.47
2023-03-07T04:36:11.215Z,46.60
2023-03-07T04:38:59.814Z,47.01
2023-03-07T04:41:48.753Z,46.65
2023-03-07T04:44:38.919Z,46.79
2023-03-07T04:47:27.639Z,46.50
2023-03-07T04:50:16.292Z,46.46
2023-03-07T04:53:04.867Z,46.64
2023-03-07T04:55:58.200Z,46.51
2023-03-07T04:58:47.058Z,46.54
2023-03-07T05:01:37.090Z,46.84
2023-03-07T05:04:27.776Z,46.67
2023-03-07T05:07:16.463Z,46.70
2023-03-07T05:10:05.354Z,46.66
2023-03-07T05:12:53.989Z,46.94
2023-03-07T05:15:42.857Z,46.92
2023-03-07T05:18:32.933Z,46.90
2023-03-07T05:21:21.680Z,46.91
2023-03-07T05:24:10.346Z,46.83
2023-03-07T05:26:59.092Z,47.04
2023-03-07T05:29:47.765Z,46.85
2023-03-07T05:32:36.540Z,46.84
2023-03-07T05:35:27.700Z,47.32
2023-03-07T05:38:16.372Z,47.11
2023-03-07T05:41:05.917Z,47.24
2023-03-07T05:43:55.413Z,46.93
2023-03-07T05:46:44.045Z,45.82
2023-03-07T05:49:32.704Z,45.43
2023-03-07T05:52:22.697Z,45.62
2023-03-07T05:55:12.161Z,45.34
2023-03-07T05:58:00.821Z,44.94
2023-03-07T06:00:49.730Z,45.06
2023-03-07T06:03:38.525Z,44.83
2023-03-07T06:06:27.206Z,44.53
2023-03-07T06:09:17.468Z,44.59
2023-03-07T06:12:06.476Z,43.99
2023-03-07T06:14:55.124Z,43.58
2023-03-07T06:17:44.186Z,43.87
2023-03-07T06:20:32.845Z,43.61
2023-03-07T06:23:21.539Z,43.46
2023-03-07T06:26:12.420Z,43.35
2023-03-07T06:29:02.052Z,42.89
2023-03-07T06:31:51.284Z,43.14
2023-03-07T06:34:39.948Z,42.69
2023-03-07T06:37:28.733Z,42.84
2023-03-07T06:40:17.788Z,43.70
2023-03-07T06:43:07.926Z,42.40
2023-03-07T06:45:56.956Z,42.00
2023-03-07T06:48:45.665Z,42.26
2023-03-07T06:51:36.070Z,42.17
2023-03-07T06:54:26.689Z,42.52
2023-03-07T06:57:15.314Z,42.33
2023-03-07T07:00:07.128Z,42.17
2023-03-07T07:02:56.198Z,41.87
2023-03-07T07:05:45.560Z,42.17
2023-03-07T07:08:34.178Z,41.82
2023-03-07T07:11:23.186Z,42.00
2023-03-07T07:14:12.759Z,42.16
2023-03-07T07:17:03.760Z,42.08
2023-03-07T07:19:52.540Z,41.97
2023-03-07T07:22:42.917Z,41.83
2023-03-07T07:25:32.056Z,42.05
2023-03-07T07:28:21.525Z,41.71
2023-03-07T07:31:11.376Z,41.58
2023-03-07T07:34:01.362Z,41.89
2023-03-07T07:36:50.317Z,41.73
2023-03-07T07:39:41.343Z,41.58
2023-03-07T07:42:32.281Z,41.41
2023-03-07T07:45:21.190Z,41.10
2023-03-07T07:48:10.075Z,40.90
2023-03-07T07:51:03.560Z,40.92
2023-03-07T07:53:52.166Z,40.90
2023-03-07T07:56:41.306Z,41.06
2023-03-07T07:59:32.231Z,40.94
2023-03-07T08:02:21.133Z,40.91
2023-03-07T08:05:12.524Z,40.59
2023-03-07T08:08:02.784Z,40.92
2023-03-07T08:10:51.494Z,40.64
2023-03-07T08:13:40.082Z,40.50
2023-03-07T08:16:29.370Z,40.53
2023-03-07T08:19:18.005Z,40.64
2023-03-07T08:22:07.198Z,40.26
2023-03-07T08:24:57.243Z,40.69
2023-03-07T08:27:45.997Z,40.74
2023-03-07T08:30:36.233Z,41.41
2023-03-07T08:33:24.940Z,42.01
2023-03-07T08:36:13.525Z,42.12
2023-03-07T08:39:02.304Z,42.33
2023-03-07T08:41:55.249Z,42.03
2023-03-07T08:44:44.180Z,40.94
2023-03-07T08:47:32.810Z,40.98
2023-03-07T08:50:22.048Z,40.74
2023-03-07T08:53:11.078Z,40.49
2023-03-07T08:55:59.771Z,40.25
2023-03-07T08:58:49.841Z,40.21
2023-03-07T09:01:41.031Z,40.34
2023-03-07T09:04:30.195Z,40.05
2023-03-07T09:07:19.522Z,40.53
2023-03-07T09:10:11.813Z,40.43
2023-03-07T09:13:00.456Z,40.59
2023-03-07T09:15:51.722Z,40.67
2023-03-07T09:18:40.677Z,40.52
2023-03-07T09:21:30.477Z,39.98
2023-03-07T09:24:19.629Z,39.95
2023-03-07T09:27:08.356Z,40.25
2023-03-07T09:29:57.226Z,39.96
2023-03-07T09:32:47.341Z,39.76
2023-03-07T09:35:36.048Z,40.03
2023-03-07T09:38:24.967Z,39.98
2023-03-07T09:41:44.559Z,39.85
2023-03-07T09:44:47.937Z,39.69
2023-03-07T09:47:53.786Z,39.85
2023-03-07T09:50:45.668Z,39.79
2023-03-07T09:53:39.000Z,39.36
2023-03-07T09:56:31.236Z,39.11
2023-03-07T09:59:24.477Z,39.24
2023-03-07T10:02:18.131Z,39.15
2023-03-07T10:05:19.259Z,39.28
2023-03-07T10:08:11.717Z,38.89
2023-03-07T10:11:08.483Z,39.20
2023-03-07T10:14:06.683Z,39.13
2023-03-07T10:17:02.108Z,38.66
2023-03-07T10:19:52.433Z,38.95
2023-03-07T10:22:46.455Z,39.54
2023-03-07T10:25:36.115Z,39.21
2023-03-07T10:28:27.456Z,38.77
2023-03-07T10:31:19.714Z,38.94
2023-03-07T10:34:26.435Z,39.13
2023-03-07T10:37:19.976Z,38.94
2023-03-07T10:40:17.634Z,38.88
2023-03-07T10:43:06.769Z,38.97
2023-03-07T10:46:00.331Z,39.30
2023-03-07T10:48:51.353Z,38.83
2023-03-07T10:51:51.568Z,38.99
2023-03-07T10:54:40.767Z,38.99
2023-03-07T10:57:31.033Z,38.47
2023-03-07T11:00:20.776Z,38.34
2023-03-07T11:03:24.310Z,38.96
2023-03-07T11:06:35.071Z,38.71
2023-03-07T11:09:29.136Z,38.60
2023-03-07T11:12:21.677Z,38.56
2023-03-07T11:15:19.385Z,38.37
2023-03-07T11:18:27.147Z,39.48
2023-03-07T11:21:29.914Z,40.02
2023-03-07T11:24:26.503Z,38.64
2023-03-07T11:27:23.024Z,38.19
2023-03-07T11:30:25.184Z,38.73
2023-03-07T11:33:18.914Z,38.18
2023-03-07T11:36:10.792Z,37.93
2023-03-07T11:39:03.826Z,38.33
2023-03-07T11:41:57.274Z,38.17
2023-03-07T11:44:51.659Z,37.61
2023-03-07T11:47:49.942Z,38.02
2023-03-07T11:50:39.439Z,37.77
2023-03-07T11:53:54.762Z,37.98
2023-03-07T11:56:48.874Z,37.92
2023-03-07T12:00:17.920Z,37.64
2023-03-07T12:03:18.852Z,37.80
2023-03-07T12:06:19.730Z,37.75
2023-03-07T12:09:18.487Z,37.46
2023-03-07T12:12:25.431Z,37.63
2023-03-07T12:15:28.927Z,37.44
2023-03-07T12:18:37.389Z,37.42
2023-03-07T12:21:37.413Z,37.46
2023-03-07T12:24:29.125Z,37.13
2023-03-07T12:27:25.550Z,37.14
2023-03-07T12:30:18.264Z,37.54
2023-03-07T12:33:08.111Z,37.75
2023-03-07T12:36:00.307Z,37.68
2023-03-07T12:38:53.107Z,37.33
2023-03-07T12:41:49.574Z,37.58
2023-03-07T12:44:42.613Z,37.32
2023-03-07T12:47:34.467Z,36.85
2023-03-07T12:50:28.949Z,36.16
2023-03-07T12:53:22.601Z,36.69
2023-03-07T12:56:15.778Z,36.71
2023-03-07T12:59:10.059Z,36.24
2023-03-07T13:02:03.268Z,36.50
2023-03-07T13:04:52.271Z,36.51
2023-03-07T13:07:42.722Z,36.34
2023-03-07T13:10:33.115Z,36.75
2023-03-07T13:13:56.956Z,36.87
2023-03-07T13:16:47.036Z,36.71
2023-03-07T13:19:55.993Z,36.87
2023-03-07T13:23:02.299Z,37.00
2023-03-07T13:26:01.126Z,37.22
2023-03-07T13:28:51.624Z,37.05
2023-03-07T13:31:43.901Z,37.17
2023-03-07T13:34:48.917Z,36.91
2023-03-07T13:37:53.121Z,37.41
2023-03-07T13:40:54.385Z,37.29
2023-03-07T13:44:01.732Z,37.45
2023-03-07T13:46:54.211Z,37.53
2023-03-07T13:49:46.969Z,37.08
2023-03-07T13:52:45.302Z,36.88
2023-03-07T13:55:41.578Z,36.98
2023-03-07T13:58:35.762Z,37.15
2023-03-07T14:01:30.466Z,37.11
2023-03-07T14:04:36.998Z,37.18
2023-03-07T14:07:30.607Z,37.66
2023-03-07T14:10:23.847Z,37.43
2023-03-07T14:13:29.004Z,36.91
2023-03-07T14:16:28.028Z,36.75
2023-03-07T14:19:37.956Z,37.79
2023-03-07T14:22:41.368Z,36.87
2023-03-07T14:25:32.408Z,37.20
2023-03-07T14:28:25.086Z,36.57
2023-03-07T14:31:25.304Z,36.55
2023-03-07T14:34:28.648Z,36.83
2023-03-07T14:37:20.577Z,36.93
2023-03-07T14:40:30.732Z,37.29
2023-03-07T14:43:39.456Z,36.41
2023-03-07T14:46:33.840Z,34.99
2023-03-07T14:49:31.909Z,35.88
2023-03-07T14:52:30.789Z,36.24
2023-03-07T14:55:22.481Z,36.21
2023-03-07T14:58:18.300Z,36.13
2023-03-07T15:01:08.526Z,35.88
2023-03-07T15:03:57.204Z,36.05
2023-03-07T15:06:47.697Z,36.20
2023-03-07T15:09:36.433Z,36.24
2023-03-07T15:12:27.230Z,36.11
2023-03-07T15:15:24.136Z,35.99
2023-03-07T15:18:19.489Z,36.08
2023-03-07T15:21:09.503Z,36.05
2023-03-07T15:24:00.020Z,36.44
2023-03-07T15:26:53.528Z,36.50
2023-03-07T15:29:48.849Z,36.78
2023-03-07T15:32:38.996Z,36.55
2023-03-07T15:35:31.142Z,36.37
2023-03-07T15:38:26.138Z,36.63
2023-03-07T15:41:30.328Z,36.75
2023-03-07T15:44:21.248Z,36.06
2023-03-07T15:47:19.080Z,36.01
2023-03-07T15:50:08.611Z,35.86
2023-03-07T15:53:02.967Z,35.90
2023-03-07T15:55:57.234Z,35.89
2023-03-07T15:58:47.536Z,35.83
2023-03-07T16:01:36.265Z,35.69
2023-03-07T16:04:37.935Z,36.34
2023-03-07T16:07:26.614Z,36.27
2023-03-07T16:10:15.842Z,36.38
2023-03-07T16:13:04.455Z,35.85
2023-03-07T16:16:14.937Z,36.11
2023-03-07T16:19:03.592Z,36.12
2023-03-07T16:21:52.318Z,36.28
2023-03-07T16:24:40.900Z,37.48
2023-03-07T16:27:30.142Z,37.80
2023-03-07T16:30:21.674Z,37.98
2023-03-07T16:33:13.292Z,37.99
2023-03-07T16:36:01.970Z,38.20
2023-03-07T16:38:50.591Z,38.62
2023-03-07T16:41:40.616Z,38.26
2023-03-07T16:44:29.510Z,38.36
2023-03-07T16:47:19.485Z,38.54
2023-03-07T16:50:15.711Z,38.73
2023-03-07T16:53:04.731Z,39.20
2023-03-07T16:55:53.671Z,39.51
2023-03-07T16:58:44.324Z,39.53
2023-03-07T17:01:33.947Z,39.28
2023-03-07T17:04:22.572Z,39.76
2023-03-07T17:07:17.583Z,39.44
2023-03-07T17:10:06.893Z,39.69
2023-03-07T17:12:56.749Z,40.20
2023-03-07T17:15:47.026Z,40.01
2023-03-07T17:18:35.618Z,39.88
2023-03-07T17:21:24.264Z,40.00
2023-03-07T17:24:14.721Z,40.04
2023-03-07T17:27:03.973Z,40.30
2023-03-07T17:29:54.658Z,40.33
2023-03-07T17:32:43.319Z,40.75
2023-03-07T17:35:32.425Z,40.18
2023-03-07T17:38:21.038Z,40.40
2023-03-07T17:41:11.452Z,40.34
2023-03-07T17:44:01.141Z,40.08
2023-03-07T17:46:49.854Z,39.94
2023-03-07T17:49:40.283Z,40.06
2023-03-07T17:52:29.243Z,39.93
2023-03-07T17:55:18.072Z,40.43
2023-03-07T17:58:09.899Z,40.56
2023-03-07T18:00:58.621Z,40.24
2023-03-07T18:03:47.210Z,40.68
2023-03-07T18:06:38.466Z,41.04
2023-03-07T18:09:28.899Z,40.75
2023-03-07T18:12:18.283Z,40.80
2023-03-07T18:15:10.643Z,40.99
2023-03-07T18:17:59.502Z,40.91
2023-03-07T18:20:58.280Z,41.00
2023-03-07T18:23:46.995Z,40.67
2023-03-07T18:26:35.670Z,41.22
2023-03-07T18:29:25.662Z,40.81
2023-03-07T18:32:15.658Z,41.19
2023-03-07T18:35:04.375Z,41.40
2023-03-07T18:37:52.974Z,41.58
2023-03-07T18:40:41.697Z,41.29
2023-03-07T18:43:30.378Z,41.21
2023-03-07T18:46:21.071Z,41.20
2023-03-07T18:49:11.409Z,41.09
2023-03-07T18:52:00.143Z,41.36
2023-03-07T18:54:49.838Z,41.54
2023-03-07T18:57:38.630Z,41.29
2023-03-07T19:00:27.607Z,41.23
2023-03-07T19:03:16.467Z,41.71
2023-03-07T19:06:06.937Z,41.28
2023-03-07T19:08:55.685Z,41.08
2023-03-07T19:11:44.406Z,41.14
2023-03-07T19:14:33.658Z,41.21
2023-03-07T19:17:22.414Z,41.04
2023-03-07T19:20:12.242Z,41.01
2023-03-07T19:23:02.253Z,41.02
2023-03-07T19:25:50.909Z,41.06
2023-03-07T19:28:40.044Z,40.78
2023-03-07T19:31:34.981Z,41.11
2023-03-07T19:34:23.583Z,41.15
2023-03-07T19:37:12.308Z,41.25
2023-03-07T19:40:02.315Z,41.07
2023-03-07T19:42:50.999Z,41.37
2023-03-07T19:45:41.454Z,41.46
2023-03-07T19:48:31.128Z,41.33
2023-03-07T19:51:22.507Z,41.51
2023-03-07T19:54:12.048Z,41.46
2023-03-07T19:57:02.377Z,41.70
2023-03-07T19:59:53.843Z,42.06
2023-03-07T20:02:42.629Z,42.27
2023-03-07T20:05:31.392Z,42.80
2023-03-07T20:08:20.222Z,42.46
2023-03-07T20:11:12.985Z,42.56
2023-03-07T20:14:05.061Z,42.72
2023-03-07T20:16:53.652Z,43.05
2023-03-07T20:19:42.697Z,42.63
2023-03-07T20:22:31.525Z,42.83
2023-03-07T20:25:20.161Z,42.57
2023-03-07T20:28:09.845Z,42.92
2023-03-07T20:30:59.971Z,42.94
2023-03-07T20:33:49.017Z,43.16
2023-03-07T20:36:39.357Z,42.97
2023-03-07T20:39:28.151Z,42.80
2023-03-07T20:42:16.688Z,42.86
2023-03-07T20:45:05.790Z,42.95
2023-03-07T20:47:55.824Z,42.96
2023-03-07T20:50:44.544Z,43.16
2023-03-07T20:53:33.274Z,43.25
2023-03-07T20:56:22.880Z,43.35
2023-03-07T20:59:14.096Z,43.35
2023-03-07T21:02:03.050Z,43.09
2023-03-07T21:04:53.144Z,43.67
2023-03-07T21:07:42.027Z,43.89
2023-03-07T21:10:31.328Z,43.76
2023-03-07T21:13:21.575Z,44.04
2023-03-07T21:16:13.430Z,44.30
2023-03-07T21:19:03.542Z,44.28
2023-03-07T21:21:53.601Z,43.90
2023-03-07T21:24:42.372Z,43.95
2023-03-07T21:27:31.094Z,44.29
2023-03-07T21:30:19.876Z,43.76
2023-03-07T21:33:08.830Z,44.18
2023-03-07T21:35:57.767Z,43.87
2023-03-07T21:38:48.070Z,44.08
2023-03-07T21:41:36.817Z,44.09
2023-03-07T21:44:25.527Z,44.10
2023-03-07T21:47:15.767Z,44.03
2023-03-07T21:50:04.656Z,43.95
2023-03-07T21:52:53.254Z,44.14
2023-03-07T21:55:51.101Z,44.43
2023-03-07T21:58:41.009Z,44.07
2023-03-07T22:01:30.820Z,44.03
2023-03-07T22:04:19.487Z,44.11
2023-03-07T22:07:08.662Z,44.19
2023-03-07T22:09:57.296Z,44.31
2023-03-07T22:12:47.435Z,44.52
2023-03-07T22:15:36.027Z,44.26
2023-03-07T22:18:25.032Z,44.59
2023-03-07T22:21:17.139Z,44.46
2023-03-07T22:24:05.993Z,44.25
2023-03-07T22:26:54.585Z,44.63
2023-03-07T22:29:45.428Z,44.81
2023-03-07T22:32:34.371Z,44.67
2023-03-07T22:35:23.059Z,44.72
2023-03-07T22:38:11.818Z,44.27
2023-03-07T22:41:03.793Z,44.48
2023-03-07T22:43:53.535Z,44.30
2023-03-07T22:46:44.982Z,44.49
2023-03-07T22:49:34.094Z,44.30
2023-03-07T22:52:22.696Z,44.37
2023-03-07T22:55:11.831Z,44.09
2023-03-07T22:58:00.457Z,44.29
2023-03-07T23:00:49.076Z,44.21
2023-03-07T23:03:39.097Z,44.27
2023-03-07T23:06:29.566Z,44.54
2023-03-07T23:09:18.180Z,44.21
2023-03-07T23:12:07.415Z,44.20
2023-03-07T23:14:56.020Z,44.55
2023-03-07T23:17:44.726Z,44.47
2023-03-07T23:20:35.037Z,44.26
2023-03-07T23:23:23.774Z,44.41
2023-03-07T23:26:18.300Z,44.54
2023-03-07T23:29:09.726Z,44.84
2023-03-07T23:31:58.625Z,44.90
2023-03-07T23:34:47.598Z,44.88
2023-03-07T23:37:37.625Z,44.81
2023-03-07T23:40:26.479Z,44.57
2023-03-07T23:43:15.622Z,44.58
2023-03-07T23:46:04.297Z,44.58
2023-03-07T23:48:53.213Z,44.48
2023-03-07T23:51:44.546Z,44.59
2023-03-07T23:54:34.521Z,44.66
2023-03-07T23:57:23.167Z,44.60
